sensor_id;sensor_type;location;lat;lon;timestamp;P1;durP1;ratioP1;P2;durP2;ratioP2
24485;SDS011;13449;49.374;8.584;2023-05-06T00:01:17;2.55;;;1.92;;
24485;SDS011;13449;49.374;8.584;2023-05-06T00:03:44;3.70;;;2.25;;
24485;SDS011;13449;49.374;8.584;2023-05-06T00:06:11;6.47;;;2.55;;
24485;SDS011;13449;49.374;8.584;2023-05-06T00:08:40;2.13;;;1.70;;
24485;SDS011;13449;49.374;8.584;2023-05-06T00:11:07;4.70;;;2.20;;
24485;SDS011;13449;49.374;8.584;2023-05-06T00:13:33;2.30;;;2.08;;
24485;SDS011;13449;49.374;8.584;2023-05-06T00:16:00;2.17;;;1.90;;
24485;SDS011;13449;49.374;8.584;2023-05-06T00:18:26;3.83;;;1.80;;
24485;SDS011;13449;49.374;8.584;2023-05-06T00:20:53;3.47;;;2.00;;
24485;SDS011;13449;49.374;8.584;2023-05-06T00:23:22;2.17;;;1.60;;
24485;SDS011;13449;49.374;8.584;2023-05-06T00:25:54;2.17;;;1.48;;
24485;SDS011;13449;49.374;8.584;2023-05-06T00:28:20;4.15;;;1.63;;
24485;SDS011;13449;49.374;8.584;2023-05-06T00:30:47;2.13;;;1.48;;
24485;SDS011;13449;49.374;8.584;2023-05-06T00:33:13;2.47;;;1.75;;
24485;SDS011;13449;49.374;8.584;2023-05-06T00:35:40;2.85;;;1.77;;
24485;SDS011;13449;49.374;8.584;2023-05-06T00:38:07;10.00;;;1.77;;
24485;SDS011;13449;49.374;8.584;2023-05-06T00:40:36;4.15;;;1.95;;
24485;SDS011;13449;49.374;8.584;2023-05-06T00:43:03;2.20;;;1.80;;
24485;SDS011;13449;49.374;8.584;2023-05-06T00:45:29;1.58;;;1.48;;
24485;SDS011;13449;49.374;8.584;2023-05-06T00:47:56;2.00;;;1.60;;
24485;SDS011;13449;49.374;8.584;2023-05-06T00:50:24;4.13;;;2.00;;
24485;SDS011;13449;49.374;8.584;2023-05-06T00:52:53;4.40;;;2.47;;
24485;SDS011;13449;49.374;8.584;2023-05-06T00:55:19;2.13;;;1.70;;
24485;SDS011;13449;49.374;8.584;2023-05-06T00:57:47;7.90;;;2.65;;
24485;SDS011;13449;49.374;8.584;2023-05-06T01:00:17;4.57;;;2.38;;
24485;SDS011;13449;49.374;8.584;2023-05-06T01:02:50;6.20;;;2.10;;
24485;SDS011;13449;49.374;8.584;2023-05-06T01:05:18;2.25;;;1.92;;
24485;SDS011;13449;49.374;8.584;2023-05-06T01:10:27;3.58;;;1.98;;
24485;SDS011;13449;49.374;8.584;2023-05-06T01:13:08;3.33;;;2.27;;
24485;SDS011;13449;49.374;8.584;2023-05-06T01:15:44;2.20;;;1.98;;
24485;SDS011;13449;49.374;8.584;2023-05-06T01:18:15;2.20;;;1.73;;
24485;SDS011;13449;49.374;8.584;2023-05-06T01:20:44;1.77;;;1.67;;
24485;SDS011;13449;49.374;8.584;2023-05-06T01:23:15;5.22;;;3.33;;
24485;SDS011;13449;49.374;8.584;2023-05-06T01:25:42;3.45;;;3.00;;
24485;SDS011;13449;49.374;8.584;2023-05-06T01:28:09;6.38;;;3.03;;
24485;SDS011;13449;49.374;8.584;2023-05-06T01:30:38;5.60;;;2.60;;
24485;SDS011;13449;49.374;8.584;2023-05-06T01:33:17;10.88;;;3.53;;
24485;SDS011;13449;49.374;8.584;2023-05-06T01:36:02;8.55;;;2.28;;
24485;SDS011;13449;49.374;8.584;2023-05-06T01:38:34;2.35;;;1.90;;
24485;SDS011;13449;49.374;8.584;2023-05-06T01:41:15;4.05;;;2.40;;
24485;SDS011;13449;49.374;8.584;2023-05-06T01:43:44;2.15;;;1.77;;
24485;SDS011;13449;49.374;8.584;2023-05-06T01:46:14;1.85;;;1.73;;
24485;SDS011;13449;49.374;8.584;2023-05-06T01:48:43;3.22;;;1.83;;
24485;SDS011;13449;49.374;8.584;2023-05-06T01:51:11;2.58;;;2.08;;
24485;SDS011;13449;49.374;8.584;2023-05-06T01:53:37;5.80;;;2.20;;
24485;SDS011;13449;49.374;8.584;2023-05-06T01:56:04;3.80;;;3.33;;
24485;SDS011;13449;49.374;8.584;2023-05-06T01:58:31;7.15;;;2.70;;
24485;SDS011;13449;49.374;8.584;2023-05-06T02:00:57;2.55;;;2.13;;
24485;SDS011;13449;49.374;8.584;2023-05-06T02:03:23;2.40;;;2.20;;
24485;SDS011;13449;49.374;8.584;2023-05-06T02:05:50;2.40;;;2.20;;
24485;SDS011;13449;49.374;8.584;2023-05-06T02:08:17;2.58;;;2.20;;
24485;SDS011;13449;49.374;8.584;2023-05-06T02:10:43;4.50;;;2.03;;
24485;SDS011;13449;49.374;8.584;2023-05-06T02:13:10;2.10;;;1.88;;
24485;SDS011;13449;49.374;8.584;2023-05-06T02:15:37;2.75;;;2.03;;
24485;SDS011;13449;49.374;8.584;2023-05-06T02:18:06;2.72;;;2.30;;
24485;SDS011;13449;49.374;8.584;2023-05-06T02:20:33;2.78;;;2.25;;
24485;SDS011;13449;49.374;8.584;2023-05-06T02:22:59;5.35;;;2.90;;
24485;SDS011;13449;49.374;8.584;2023-05-06T02:25:26;4.60;;;2.35;;
24485;SDS011;13449;49.374;8.584;2023-05-06T02:27:55;6.78;;;2.30;;
24485;SDS011;13449;49.374;8.584;2023-05-06T02:30:23;4.75;;;2.53;;
24485;SDS011;13449;49.374;8.584;2023-05-06T02:32:50;2.35;;;2.15;;
24485;SDS011;13449;49.374;8.584;2023-05-06T02:35:19;4.80;;;3.85;;
24485;SDS011;13449;49.374;8.584;2023-05-06T02:37:46;11.52;;;3.83;;
24485;SDS011;13449;49.374;8.584;2023-05-06T02:40:12;4.18;;;3.05;;
24485;SDS011;13449;49.374;8.584;2023-05-06T02:42:39;3.80;;;2.92;;
24485;SDS011;13449;49.374;8.584;2023-05-06T02:45:05;3.72;;;2.90;;
24485;SDS011;13449;49.374;8.584;2023-05-06T02:47:33;2.53;;;2.33;;
24485;SDS011;13449;49.374;8.584;2023-05-06T02:49:59;3.78;;;3.05;;
24485;SDS011;13449;49.374;8.584;2023-05-06T02:52:26;6.88;;;2.70;;
24485;SDS011;13449;49.374;8.584;2023-05-06T02:54:52;2.33;;;2.13;;
24485;SDS011;13449;49.374;8.584;2023-05-06T02:57:19;2.85;;;2.53;;
24485;SDS011;13449;49.374;8.584;2023-05-06T02:59:45;2.75;;;2.38;;
24485;SDS011;13449;49.374;8.584;2023-05-06T03:02:12;2.95;;;2.65;;
24485;SDS011;13449;49.374;8.584;2023-05-06T03:04:38;2.50;;;2.30;;
24485;SDS011;13449;49.374;8.584;2023-05-06T03:07:05;3.50;;;2.72;;
24485;SDS011;13449;49.374;8.584;2023-05-06T03:09:31;2.42;;;2.22;;
24485;SDS011;13449;49.374;8.584;2023-05-06T03:12:00;3.00;;;2.60;;
24485;SDS011;13449;49.374;8.584;2023-05-06T03:14:27;4.32;;;2.97;;
24485;SDS011;13449;49.374;8.584;2023-05-06T03:16:53;3.92;;;3.25;;
24485;SDS011;13449;49.374;8.584;2023-05-06T03:19:25;5.50;;;3.45;;
24485;SDS011;13449;49.374;8.584;2023-05-06T03:21:52;4.55;;;3.13;;
24485;SDS011;13449;49.374;8.584;2023-05-06T03:24:18;5.20;;;3.80;;
24485;SDS011;13449;49.374;8.584;2023-05-06T03:26:47;6.03;;;4.35;;
24485;SDS011;13449;49.374;8.584;2023-05-06T03:29:16;4.43;;;3.55;;
24485;SDS011;13449;49.374;8.584;2023-05-06T03:31:43;4.72;;;3.60;;
24485;SDS011;13449;49.374;8.584;2023-05-06T03:34:09;9.20;;;2.85;;
24485;SDS011;13449;49.374;8.584;2023-05-06T03:36:38;4.70;;;3.55;;
24485;SDS011;13449;49.374;8.584;2023-05-06T03:39:04;4.90;;;3.42;;
24485;SDS011;13449;49.374;8.584;2023-05-06T03:41:31;6.63;;;3.47;;
24485;SDS011;13449;49.374;8.584;2023-05-06T03:43:57;5.03;;;3.38;;
24485;SDS011;13449;49.374;8.584;2023-05-06T03:46:23;3.35;;;2.72;;
24485;SDS011;13449;49.374;8.584;2023-05-06T03:48:50;4.95;;;3.20;;
24485;SDS011;13449;49.374;8.584;2023-05-06T03:51:19;4.35;;;3.17;;
24485;SDS011;13449;49.374;8.584;2023-05-06T03:53:45;8.07;;;4.45;;
24485;SDS011;13449;49.374;8.584;2023-05-06T03:56:12;7.35;;;3.40;;
24485;SDS011;13449;49.374;8.584;2023-05-06T03:58:38;5.40;;;3.60;;
24485;SDS011;13449;49.374;8.584;2023-05-06T04:01:05;4.35;;;3.50;;
24485;SDS011;13449;49.374;8.584;2023-05-06T04:03:31;4.63;;;3.03;;
24485;SDS011;13449;49.374;8.584;2023-05-06T04:05:58;5.63;;;3.30;;
24485;SDS011;13449;49.374;8.584;2023-05-06T04:08:24;3.85;;;3.08;;
24485;SDS011;13449;49.374;8.584;2023-05-06T04:10:53;6.00;;;3.38;;
24485;SDS011;13449;49.374;8.584;2023-05-06T04:13:20;6.70;;;4.38;;
24485;SDS011;13449;49.374;8.584;2023-05-06T04:15:47;6.50;;;3.20;;
24485;SDS011;13449;49.374;8.584;2023-05-06T04:18:16;3.75;;;2.67;;
24485;SDS011;13449;49.374;8.584;2023-05-06T04:20:45;3.40;;;3.05;;
24485;SDS011;13449;49.374;8.584;2023-05-06T04:23:13;3.83;;;3.42;;
24485;SDS011;13449;49.374;8.584;2023-05-06T04:25:40;4.13;;;3.50;;
24485;SDS011;13449;49.374;8.584;2023-05-06T04:28:08;4.50;;;2.95;;
24485;SDS011;13449;49.374;8.584;2023-05-06T04:30:36;3.85;;;3.10;;
24485;SDS011;13449;49.374;8.584;2023-05-06T04:33:03;3.33;;;2.97;;
24485;SDS011;13449;49.374;8.584;2023-05-06T04:35:29;4.60;;;2.92;;
24485;SDS011;13449;49.374;8.584;2023-05-06T04:37:56;3.88;;;2.83;;
24485;SDS011;13449;49.374;8.584;2023-05-06T04:40:22;3.45;;;2.88;;
24485;SDS011;13449;49.374;8.584;2023-05-06T04:42:51;4.05;;;3.65;;
24485;SDS011;13449;49.374;8.584;2023-05-06T04:45:17;4.97;;;3.63;;
24485;SDS011;13449;49.374;8.584;2023-05-06T04:47:44;7.15;;;3.50;;
24485;SDS011;13449;49.374;8.584;2023-05-06T04:50:11;5.32;;;4.28;;
24485;SDS011;13449;49.374;8.584;2023-05-06T04:52:40;3.85;;;3.35;;
24485;SDS011;13449;49.374;8.584;2023-05-06T04:55:07;4.88;;;2.83;;
24485;SDS011;13449;49.374;8.584;2023-05-06T04:57:34;6.70;;;3.78;;
24485;SDS011;13449;49.374;8.584;2023-05-06T05:00:00;3.20;;;2.90;;
24485;SDS011;13449;49.374;8.584;2023-05-06T05:02:29;10.45;;;5.82;;
24485;SDS011;13449;49.374;8.584;2023-05-06T05:04:56;4.65;;;3.85;;
24485;SDS011;13449;49.374;8.584;2023-05-06T05:07:23;6.55;;;4.50;;
24485;SDS011;13449;49.374;8.584;2023-05-06T05:09:49;12.32;;;5.53;;
24485;SDS011;13449;49.374;8.584;2023-05-06T05:12:15;12.82;;;5.32;;
24485;SDS011;13449;49.374;8.584;2023-05-06T05:14:42;14.13;;;5.35;;
24485;SDS011;13449;49.374;8.584;2023-05-06T05:17:12;7.85;;;4.63;;
24485;SDS011;13449;49.374;8.584;2023-05-06T05:19:38;8.80;;;5.15;;
24485;SDS011;13449;49.374;8.584;2023-05-06T05:22:06;5.82;;;4.13;;
24485;SDS011;13449;49.374;8.584;2023-05-06T05:24:32;9.43;;;5.07;;
24485;SDS011;13449;49.374;8.584;2023-05-06T05:26:59;8.30;;;5.30;;
24485;SDS011;13449;49.374;8.584;2023-05-06T05:29:25;8.85;;;5.07;;
24485;SDS011;13449;49.374;8.584;2023-05-06T05:31:51;9.23;;;5.47;;
24485;SDS011;13449;49.374;8.584;2023-05-06T05:34:18;14.80;;;6.25;;
24485;SDS011;13449;49.374;8.584;2023-05-06T05:36:44;7.40;;;5.85;;
24485;SDS011;13449;49.374;8.584;2023-05-06T05:39:11;12.85;;;5.70;;
24485;SDS011;13449;49.374;8.584;2023-05-06T05:41:37;10.63;;;5.80;;
24485;SDS011;13449;49.374;8.584;2023-05-06T05:44:03;13.07;;;7.05;;
24485;SDS011;13449;49.374;8.584;2023-05-06T05:46:30;9.73;;;6.18;;
24485;SDS011;13449;49.374;8.584;2023-05-06T05:48:56;9.45;;;6.20;;
24485;SDS011;13449;49.374;8.584;2023-05-06T05:51:23;8.73;;;6.13;;
24485;SDS011;13449;49.374;8.584;2023-05-06T05:53:50;9.40;;;5.68;;
24485;SDS011;13449;49.374;8.584;2023-05-06T05:56:19;17.20;;;6.38;;
24485;SDS011;13449;49.374;8.584;2023-05-06T05:58:46;9.85;;;6.18;;
24485;SDS011;13449;49.374;8.584;2023-05-06T06:01:13;8.27;;;5.72;;
24485;SDS011;13449;49.374;8.584;2023-05-06T06:03:40;7.88;;;6.22;;
24485;SDS011;13449;49.374;8.584;2023-05-06T06:06:07;10.23;;;6.53;;
24485;SDS011;13449;49.374;8.584;2023-05-06T06:08:34;11.27;;;6.22;;
24485;SDS011;13449;49.374;8.584;2023-05-06T06:11:01;9.93;;;5.95;;
24485;SDS011;13449;49.374;8.584;2023-05-06T06:13:29;9.13;;;5.65;;
24485;SDS011;13449;49.374;8.584;2023-05-06T06:15:56;10.23;;;6.30;;
24485;SDS011;13449;49.374;8.584;2023-05-06T06:18:23;11.88;;;6.20;;
24485;SDS011;13449;49.374;8.584;2023-05-06T06:20:52;12.43;;;5.18;;
24485;SDS011;13449;49.374;8.584;2023-05-06T06:23:19;5.50;;;4.65;;
24485;SDS011;13449;49.374;8.584;2023-05-06T06:25:46;8.63;;;6.05;;
24485;SDS011;13449;49.374;8.584;2023-05-06T06:28:12;9.60;;;6.18;;
24485;SDS011;13449;49.374;8.584;2023-05-06T06:30:39;8.63;;;5.28;;
24485;SDS011;13449;49.374;8.584;2023-05-06T06:33:09;14.10;;;5.32;;
24485;SDS011;13449;49.374;8.584;2023-05-06T06:35:35;6.13;;;5.25;;
24485;SDS011;13449;49.374;8.584;2023-05-06T06:38:02;13.68;;;5.30;;
24485;SDS011;13449;49.374;8.584;2023-05-06T06:40:28;6.60;;;4.88;;
24485;SDS011;13449;49.374;8.584;2023-05-06T06:42:54;6.80;;;4.78;;
24485;SDS011;13449;49.374;8.584;2023-05-06T06:45:24;8.23;;;5.45;;
24485;SDS011;13449;49.374;8.584;2023-05-06T06:47:53;9.32;;;4.60;;
24485;SDS011;13449;49.374;8.584;2023-05-06T06:50:22;9.38;;;4.22;;
24485;SDS011;13449;49.374;8.584;2023-05-06T06:52:55;9.17;;;5.27;;
24485;SDS011;13449;49.374;8.584;2023-05-06T06:55:22;8.10;;;3.97;;
24485;SDS011;13449;49.374;8.584;2023-05-06T06:57:51;5.43;;;4.32;;
24485;SDS011;13449;49.374;8.584;2023-05-06T07:00:17;6.50;;;4.60;;
24485;SDS011;13449;49.374;8.584;2023-05-06T07:02:44;12.15;;;4.32;;
24485;SDS011;13449;49.374;8.584;2023-05-06T07:05:13;4.90;;;3.90;;
24485;SDS011;13449;49.374;8.584;2023-05-06T07:07:43;8.80;;;4.20;;
24485;SDS011;13449;49.374;8.584;2023-05-06T07:10:09;10.88;;;3.95;;
24485;SDS011;13449;49.374;8.584;2023-05-06T07:12:36;5.15;;;3.70;;
24485;SDS011;13449;49.374;8.584;2023-05-06T07:15:03;4.82;;;3.90;;
24485;SDS011;13449;49.374;8.584;2023-05-06T07:17:32;4.78;;;3.50;;
24485;SDS011;13449;49.374;8.584;2023-05-06T07:19:58;4.63;;;3.28;;
24485;SDS011;13449;49.374;8.584;2023-05-06T07:22:27;3.95;;;2.50;;
24485;SDS011;13449;49.374;8.584;2023-05-06T07:24:54;8.65;;;2.28;;
24485;SDS011;13449;49.374;8.584;2023-05-06T07:27:21;4.30;;;2.50;;
24485;SDS011;13449;49.374;8.584;2023-05-06T07:29:47;8.95;;;2.55;;
24485;SDS011;13449;49.374;8.584;2023-05-06T07:32:14;3.20;;;2.88;;
24485;SDS011;13449;49.374;8.584;2023-05-06T07:34:41;8.05;;;2.80;;
24485;SDS011;13449;49.374;8.584;2023-05-06T07:37:12;4.45;;;3.28;;
24485;SDS011;13449;49.374;8.584;2023-05-06T07:39:39;10.63;;;2.90;;
24485;SDS011;13449;49.374;8.584;2023-05-06T07:42:08;2.90;;;2.53;;
24485;SDS011;13449;49.374;8.584;2023-05-06T07:44:40;4.38;;;3.10;;
24485;SDS011;13449;49.374;8.584;2023-05-06T07:47:07;2.25;;;2.05;;
24485;SDS011;13449;49.374;8.584;2023-05-06T07:49:36;7.57;;;2.40;;
24485;SDS011;13449;49.374;8.584;2023-05-06T07:52:02;3.75;;;2.50;;
24485;SDS011;13449;49.374;8.584;2023-05-06T07:54:29;3.22;;;2.17;;
24485;SDS011;13449;49.374;8.584;2023-05-06T07:56:57;2.40;;;1.90;;
24485;SDS011;13449;49.374;8.584;2023-05-06T07:59:23;2.90;;;1.85;;
24485;SDS011;13449;49.374;8.584;2023-05-06T08:01:50;2.45;;;1.27;;
24485;SDS011;13449;49.374;8.584;2023-05-06T08:04:18;2.85;;;1.67;;
24485;SDS011;13449;49.374;8.584;2023-05-06T08:06:45;2.85;;;1.83;;
24485;SDS011;13449;49.374;8.584;2023-05-06T08:09:17;2.55;;;1.45;;
24485;SDS011;13449;49.374;8.584;2023-05-06T08:11:48;6.10;;;1.73;;
24485;SDS011;13449;49.374;8.584;2023-05-06T08:14:15;4.32;;;2.05;;
24485;SDS011;13449;49.374;8.584;2023-05-06T08:16:42;1.70;;;1.40;;
24485;SDS011;13449;49.374;8.584;2023-05-06T08:19:08;3.15;;;1.63;;
24485;SDS011;13449;49.374;8.584;2023-05-06T08:21:35;3.90;;;2.00;;
24485;SDS011;13449;49.374;8.584;2023-05-06T08:24:01;3.88;;;1.70;;
24485;SDS011;13449;49.374;8.584;2023-05-06T08:26:28;3.13;;;1.52;;
24485;SDS011;13449;49.374;8.584;2023-05-06T08:28:55;3.05;;;1.63;;
24485;SDS011;13449;49.374;8.584;2023-05-06T08:31:24;4.28;;;1.67;;
24485;SDS011;13449;49.374;8.584;2023-05-06T08:33:51;1.58;;;1.23;;
24485;SDS011;13449;49.374;8.584;2023-05-06T08:36:20;1.80;;;1.38;;
24485;SDS011;13449;49.374;8.584;2023-05-06T08:38:49;5.65;;;1.90;;
24485;SDS011;13449;49.374;8.584;2023-05-06T08:41:17;2.33;;;1.20;;
24485;SDS011;13449;49.374;8.584;2023-05-06T08:43:45;4.25;;;1.02;;
24485;SDS011;13449;49.374;8.584;2023-05-06T08:46:13;1.67;;;1.30;;
24485;SDS011;13449;49.374;8.584;2023-05-06T08:48:40;1.40;;;1.10;;
24485;SDS011;13449;49.374;8.584;2023-05-06T08:51:07;4.20;;;1.33;;
24485;SDS011;13449;49.374;8.584;2023-05-06T08:53:34;2.55;;;1.80;;
24485;SDS011;13449;49.374;8.584;2023-05-06T08:56:01;2.13;;;1.13;;
24485;SDS011;13449;49.374;8.584;2023-05-06T08:58:30;1.90;;;1.27;;
24485;SDS011;13449;49.374;8.584;2023-05-06T09:01:00;1.70;;;1.13;;
24485;SDS011;13449;49.374;8.584;2023-05-06T09:03:28;3.42;;;1.15;;
24485;SDS011;13449;49.374;8.584;2023-05-06T09:05:57;5.40;;;1.30;;
24485;SDS011;13449;49.374;8.584;2023-05-06T09:08:24;7.53;;;0.80;;
24485;SDS011;13449;49.374;8.584;2023-05-06T09:10:51;1.63;;;0.88;;
24485;SDS011;13449;49.374;8.584;2023-05-06T09:13:17;4.40;;;1.10;;
24485;SDS011;13449;49.374;8.584;2023-05-06T09:15:45;4.78;;;1.77;;
24485;SDS011;13449;49.374;8.584;2023-05-06T09:18:15;1.95;;;1.00;;
24485;SDS011;13449;49.374;8.584;2023-05-06T09:20:46;1.77;;;1.13;;
24485;SDS011;13449;49.374;8.584;2023-05-06T09:23:14;3.80;;;0.95;;
24485;SDS011;13449;49.374;8.584;2023-05-06T09:25:44;5.32;;;1.52;;
24485;SDS011;13449;49.374;8.584;2023-05-06T09:28:12;1.75;;;1.00;;
24485;SDS011;13449;49.374;8.584;2023-05-06T09:30:40;1.98;;;1.00;;
24485;SDS011;13449;49.374;8.584;2023-05-06T09:33:08;3.45;;;1.33;;
24485;SDS011;13449;49.374;8.584;2023-05-06T09:35:36;1.98;;;0.90;;
24485;SDS011;13449;49.374;8.584;2023-05-06T09:38:06;1.13;;;0.98;;
24485;SDS011;13449;49.374;8.584;2023-05-06T09:40:37;4.88;;;1.30;;
24485;SDS011;13449;49.374;8.584;2023-05-06T09:43:04;0.77;;;0.77;;
24485;SDS011;13449;49.374;8.584;2023-05-06T09:45:31;4.53;;;1.05;;
24485;SDS011;13449;49.374;8.584;2023-05-06T09:47:58;2.55;;;0.82;;
24485;SDS011;13449;49.374;8.584;2023-05-06T09:50:24;2.40;;;0.98;;
24485;SDS011;13449;49.374;8.584;2023-05-06T09:52:52;1.10;;;1.00;;
24485;SDS011;13449;49.374;8.584;2023-05-06T09:55:20;1.60;;;0.70;;
24485;SDS011;13449;49.374;8.584;2023-05-06T09:57:48;1.02;;;0.70;;
24485;SDS011;13449;49.374;8.584;2023-05-06T10:00:15;0.70;;;0.52;;
24485;SDS011;13449;49.374;8.584;2023-05-06T10:02:53;0.70;;;0.55;;
24485;SDS011;13449;49.374;8.584;2023-05-06T10:05:19;2.28;;;0.80;;
24485;SDS011;13449;49.374;8.584;2023-05-06T10:07:50;1.73;;;0.80;;
24485;SDS011;13449;49.374;8.584;2023-05-06T10:10:18;1.15;;;0.80;;
24485;SDS011;13449;49.374;8.584;2023-05-06T10:12:45;1.23;;;0.60;;
24485;SDS011;13449;49.374;8.584;2023-05-06T10:15:13;2.13;;;0.90;;
24485;SDS011;13449;49.374;8.584;2023-05-06T10:17:43;1.90;;;0.60;;
24485;SDS011;13449;49.374;8.584;2023-05-06T10:20:13;0.82;;;0.70;;
24485;SDS011;13449;49.374;8.584;2023-05-06T10:27:53;0.68;;;0.57;;
24485;SDS011;13449;49.374;8.584;2023-05-06T10:30:20;1.00;;;0.57;;
24485;SDS011;13449;49.374;8.584;2023-05-06T10:32:48;0.43;;;0.40;;
24485;SDS011;13449;49.374;8.584;2023-05-06T10:35:27;2.55;;;0.90;;
24485;SDS011;13449;49.374;8.584;2023-05-06T10:38:01;2.33;;;0.77;;
24485;SDS011;13449;49.374;8.584;2023-05-06T10:40:30;0.70;;;0.70;;
24485;SDS011;13449;49.374;8.584;2023-05-06T10:43:18;0.47;;;0.40;;
24485;SDS011;13449;49.374;8.584;2023-05-06T10:45:57;1.52;;;0.50;;
24485;SDS011;13449;49.374;8.584;2023-05-06T10:48:25;1.30;;;0.57;;
24485;SDS011;13449;49.374;8.584;2023-05-06T10:51:17;2.92;;;0.40;;
24485;SDS011;13449;49.374;8.584;2023-05-06T10:54:04;1.75;;;0.50;;
24485;SDS011;13449;49.374;8.584;2023-05-06T10:56:35;1.52;;;0.65;;
24485;SDS011;13449;49.374;8.584;2023-05-06T10:59:07;3.90;;;0.70;;
24485;SDS011;13449;49.374;8.584;2023-05-06T11:01:35;1.27;;;0.80;;
24485;SDS011;13449;49.374;8.584;2023-05-06T11:04:13;0.80;;;0.50;;
24485;SDS011;13449;49.374;8.584;2023-05-06T11:06:44;0.63;;;0.63;;
24485;SDS011;13449;49.374;8.584;2023-05-06T11:09:22;2.00;;;0.43;;
24485;SDS011;13449;49.374;8.584;2023-05-06T11:11:58;2.13;;;0.82;;
24485;SDS011;13449;49.374;8.584;2023-05-06T11:14:35;2.05;;;0.60;;
24485;SDS011;13449;49.374;8.584;2023-05-06T11:17:06;0.77;;;0.40;;
24485;SDS011;13449;49.374;8.584;2023-05-06T11:20:16;3.63;;;0.45;;
24485;SDS011;13449;49.374;8.584;2023-05-06T11:22:48;0.50;;;0.47;;
24485;SDS011;13449;49.374;8.584;2023-05-06T11:28:12;1.90;;;0.38;;
24485;SDS011;13449;49.374;8.584;2023-05-06T11:30:42;5.07;;;0.73;;
24485;SDS011;13449;49.374;8.584;2023-05-06T11:33:21;2.00;;;0.60;;
24485;SDS011;13449;49.374;8.584;2023-05-06T11:35:51;0.60;;;0.50;;
24485;SDS011;13449;49.374;8.584;2023-05-06T11:38:18;1.88;;;0.98;;
24485;SDS011;13449;49.374;8.584;2023-05-06T11:40:44;1.73;;;0.63;;
24485;SDS011;13449;49.374;8.584;2023-05-06T11:43:14;0.43;;;0.40;;
24485;SDS011;13449;49.374;8.584;2023-05-06T11:45:42;1.65;;;0.57;;
24485;SDS011;13449;49.374;8.584;2023-05-06T11:48:13;0.63;;;0.60;;
24485;SDS011;13449;49.374;8.584;2023-05-06T11:50:43;9.88;;;0.60;;
24485;SDS011;13449;49.374;8.584;2023-05-06T11:53:16;5.80;;;0.80;;
24485;SDS011;13449;49.374;8.584;2023-05-06T11:55:44;8.98;;;1.23;;
24485;SDS011;13449;49.374;8.584;2023-05-06T11:58:15;1.48;;;0.55;;
24485;SDS011;13449;49.374;8.584;2023-05-06T12:00:52;4.72;;;0.50;;
24485;SDS011;13449;49.374;8.584;2023-05-06T12:03:19;1.48;;;0.40;;
24485;SDS011;13449;49.374;8.584;2023-05-06T12:05:47;2.42;;;0.57;;
24485;SDS011;13449;49.374;8.584;2023-05-06T12:08:16;0.90;;;0.70;;
24485;SDS011;13449;49.374;8.584;2023-05-06T12:10:55;1.08;;;0.40;;
24485;SDS011;13449;49.374;8.584;2023-05-06T12:13:25;5.57;;;0.52;;
24485;SDS011;13449;49.374;8.584;2023-05-06T12:15:56;2.15;;;0.82;;
24485;SDS011;13449;49.374;8.584;2023-05-06T12:18:24;3.72;;;0.70;;
24485;SDS011;13449;49.374;8.584;2023-05-06T12:20:55;0.55;;;0.40;;
24485;SDS011;13449;49.374;8.584;2023-05-06T12:23:22;1.67;;;0.63;;
24485;SDS011;13449;49.374;8.584;2023-05-06T12:26:02;5.95;;;0.80;;
24485;SDS011;13449;49.374;8.584;2023-05-06T12:28:30;2.97;;;0.65;;
24485;SDS011;13449;49.374;8.584;2023-05-06T12:30:58;1.60;;;0.95;;
24485;SDS011;13449;49.374;8.584;2023-05-06T12:33:43;2.67;;;0.73;;
24485;SDS011;13449;49.374;8.584;2023-05-06T12:36:10;0.70;;;0.50;;
24485;SDS011;13449;49.374;8.584;2023-05-06T12:38:37;1.02;;;0.50;;
24485;SDS011;13449;49.374;8.584;2023-05-06T12:41:03;2.95;;;0.63;;
24485;SDS011;13449;49.374;8.584;2023-05-06T12:43:32;0.50;;;0.50;;
24485;SDS011;13449;49.374;8.584;2023-05-06T12:46:02;1.83;;;0.65;;
24485;SDS011;13449;49.374;8.584;2023-05-06T12:48:33;1.58;;;0.70;;
24485;SDS011;13449;49.374;8.584;2023-05-06T12:50:59;1.80;;;0.50;;
24485;SDS011;13449;49.374;8.584;2023-05-06T12:53:29;0.77;;;0.60;;
24485;SDS011;13449;49.374;8.584;2023-05-06T12:55:58;3.08;;;0.50;;
24485;SDS011;13449;49.374;8.584;2023-05-06T12:58:26;2.42;;;0.60;;
24485;SDS011;13449;49.374;8.584;2023-05-06T13:00:55;1.90;;;0.68;;
24485;SDS011;13449;49.374;8.584;2023-05-06T13:03:24;2.13;;;0.63;;
24485;SDS011;13449;49.374;8.584;2023-05-06T13:05:52;3.33;;;0.60;;
24485;SDS011;13449;49.374;8.584;2023-05-06T13:08:18;0.98;;;0.55;;
24485;SDS011;13449;49.374;8.584;2023-05-06T13:10:45;2.10;;;0.70;;
24485;SDS011;13449;49.374;8.584;2023-05-06T13:13:14;2.40;;;0.63;;
24485;SDS011;13449;49.374;8.584;2023-05-06T13:15:41;2.00;;;0.60;;
24485;SDS011;13449;49.374;8.584;2023-05-06T13:18:08;5.05;;;0.70;;
24485;SDS011;13449;49.374;8.584;2023-05-06T13:20:35;1.23;;;0.57;;
24485;SDS011;13449;49.374;8.584;2023-05-06T13:23:01;1.45;;;0.60;;
24485;SDS011;13449;49.374;8.584;2023-05-06T13:25:31;0.73;;;0.70;;
24485;SDS011;13449;49.374;8.584;2023-05-06T13:27:58;1.58;;;0.90;;
24485;SDS011;13449;49.374;8.584;2023-05-06T13:30:27;6.30;;;0.88;;
24485;SDS011;13449;49.374;8.584;2023-05-06T13:32:59;4.45;;;0.68;;
24485;SDS011;13449;49.374;8.584;2023-05-06T13:35:26;0.57;;;0.52;;
24485;SDS011;13449;49.374;8.584;2023-05-06T13:37:52;1.15;;;0.70;;
24485;SDS011;13449;49.374;8.584;2023-05-06T13:40:21;1.30;;;0.80;;
24485;SDS011;13449;49.374;8.584;2023-05-06T13:42:48;0.88;;;0.60;;
24485;SDS011;13449;49.374;8.584;2023-05-06T13:45:14;2.15;;;0.50;;
24485;SDS011;13449;49.374;8.584;2023-05-06T13:47:40;0.65;;;0.40;;
24485;SDS011;13449;49.374;8.584;2023-05-06T13:50:08;1.58;;;0.70;;
24485;SDS011;13449;49.374;8.584;2023-05-06T13:52:37;3.97;;;0.43;;
24485;SDS011;13449;49.374;8.584;2023-05-06T13:55:04;1.75;;;0.80;;
24485;SDS011;13449;49.374;8.584;2023-05-06T13:57:31;1.10;;;0.50;;
24485;SDS011;13449;49.374;8.584;2023-05-06T13:59:57;0.80;;;0.65;;
24485;SDS011;13449;49.374;8.584;2023-05-06T14:02:23;4.72;;;0.80;;
24485;SDS011;13449;49.374;8.584;2023-05-06T14:04:51;3.60;;;0.47;;
24485;SDS011;13449;49.374;8.584;2023-05-06T14:07:18;3.97;;;0.50;;
24485;SDS011;13449;49.374;8.584;2023-05-06T14:09:44;1.15;;;0.52;;
24485;SDS011;13449;49.374;8.584;2023-05-06T14:12:11;4.15;;;0.60;;
24485;SDS011;13449;49.374;8.584;2023-05-06T14:14:37;0.80;;;0.45;;
24485;SDS011;13449;49.374;8.584;2023-05-06T14:17:09;0.80;;;0.50;;
24485;SDS011;13449;49.374;8.584;2023-05-06T14:19:36;0.40;;;0.40;;
24485;SDS011;13449;49.374;8.584;2023-05-06T14:22:02;0.68;;;0.60;;
24485;SDS011;13449;49.374;8.584;2023-05-06T14:24:33;0.85;;;0.50;;
24485;SDS011;13449;49.374;8.584;2023-05-06T14:27:00;3.13;;;0.70;;
24485;SDS011;13449;49.374;8.584;2023-05-06T14:29:29;6.82;;;1.02;;
24485;SDS011;13449;49.374;8.584;2023-05-06T14:31:56;1.23;;;0.50;;
24485;SDS011;13449;49.374;8.584;2023-05-06T14:34:24;1.33;;;0.82;;
24485;SDS011;13449;49.374;8.584;2023-05-06T14:36:52;1.60;;;0.50;;
24485;SDS011;13449;49.374;8.584;2023-05-06T14:39:21;3.90;;;0.55;;
24485;SDS011;13449;49.374;8.584;2023-05-06T14:41:47;1.30;;;0.50;;
24485;SDS011;13449;49.374;8.584;2023-05-06T14:44:14;1.38;;;0.52;;
24485;SDS011;13449;49.374;8.584;2023-05-06T14:46:40;0.85;;;0.70;;
24485;SDS011;13449;49.374;8.584;2023-05-06T14:49:07;0.82;;;0.55;;
24485;SDS011;13449;49.374;8.584;2023-05-06T14:51:33;0.38;;;0.38;;
24485;SDS011;13449;49.374;8.584;2023-05-06T14:54:00;0.47;;;0.47;;
24485;SDS011;13449;49.374;8.584;2023-05-06T14:56:26;2.05;;;0.63;;
24485;SDS011;13449;49.374;8.584;2023-05-06T14:58:55;1.67;;;0.55;;
24485;SDS011;13449;49.374;8.584;2023-05-06T15:01:28;0.70;;;0.50;;
24485;SDS011;13449;49.374;8.584;2023-05-06T15:03:57;1.15;;;0.90;;
24485;SDS011;13449;49.374;8.584;2023-05-06T15:06:23;0.60;;;0.60;;